This is the latest recevied weather packets stored in our database for station/object K0JSC-13. If no packets are shown the sender has not sent any weather packets the latest 10 day(s).
| Time | Temp. | Humidity | Pressure | Rain* | Wind** | Luminosity | Snow |
|---|---|---|---|---|---|---|---|
| 1777064043 | 22.78° C | 6% | 983.2 hPa | 0 mm | - | - | - |
| 1777059904 | 22.78° C | 9% | 984.7 hPa | 0 mm | - | - | - |
| 1777058823 | 22.22° C | 11% | 985 hPa | 0 mm | - | - | - |
| 1777057743 | 22.22° C | 12% | 985.6 hPa | 0 mm | - | - | - |
| 1777051084 | 20° C | 12% | 987.8 hPa | 0 mm | - | - | - |
| 1777050003 | 18.89° C | 13% | 988.1 hPa | 0 mm | - | - | - |
| 1777049103 | 18.33° C | 13% | 988.2 hPa | 0 mm | - | - | - |
| 1777048023 | 17.22° C | 13% | 988.6 hPa | 0 mm | - | - | - |
| 1777047483 | 17.78° C | 14% | 988.8 hPa | 0 mm | - | - | - |
| 1777044963 | 16.11° C | 17% | 989.5 hPa | 0 mm | - | - | - |
| 1777042443 | 13.89° C | 21% | 990 hPa | 0 mm | - | - | - |
| 1777041498 | 13.33° C | 21% | 990.3 hPa | 0 mm | - | - | - |
| 1777038977 | 10° C | 26% | 990.1 hPa | 0 mm | - | - | - |
| 1777038303 | 8.89° C | 27% | 990 hPa | 0 mm | - | - | - |
| 1777036817 | 7.78° C | 26% | 989.8 hPa | 0 mm | - | - | - |
| 1777036143 | 7.22° C | 27% | 989.7 hPa | 0 mm | - | - | - |
| 1777033623 | 5.56° C | 32% | 989.2 hPa | 0 mm | - | - | - |
| 1777032677 | 5.56° C | 31% | 989.2 hPa | 0 mm | - | - | - |
| 1777031643 | 5.56° C | 30% | 989.2 hPa | 0 mm | - | - | - |
| 1777017243 | 5.56° C | 32% | 988.4 hPa | 0 mm | - | - | - |
| 1777015083 | 5° C | 34% | 988.5 hPa | 0 mm | - | - | - |
| 1777007883 | 9.44° C | 24% | 987.3 hPa | 0 mm | - | - | - |
| 1777004283 | 10.56° C | 23% | 986.7 hPa | 0 mm | - | - | - |
| 1776998298 | 11.67° C | 21% | 983.8 hPa | 0 mm | - | - | - |
* Rain latest hour (hover to see other rain measurements)
** Current wind speed in m/s (hover to see current wind gust speed)